Davis Monthan Air Force Base Tucson US
ICAO: KDMA
IATA: DMA
Category: Medium
Scheduled Services: No

Elevation: 2704 ft
TransAlt. 18000 ft.

Airport Communications:
TUCSON APP/DEP:119.4
COMD POST:38.13
ATIS:27.01
CLNC DEL:121.8
GND:121.8
PMSV METRO:23.98
PTD:37.22
TWR:118.85

KDMA Zoom In..

If you have problems with the map follow the link
https://www.worldairports.se/pages/airport.php?
ICAO=KDMA

Runways:

(A) RW 12 length 13643 ft width 200 ft
---- / hdg 126

(B) RW 30 length 13643 ft width 200 ft
ILS 109.30 / hdg 306

Location; KDMA
Day. 12 / Time. 07.58 Zulu
* Altimeter: 30.19
* Temperature: 06° c. 42.8°f.
* Wind from: 120° Speed 06 kn.
Dewpoint: 03° c.
Visibility: 10 Statute Miles.
Clouds: Clear (automated report).

KDMA 120758Z AUTO 12006KT 10SM CLR 06/03 A3019 RMK AO2 SLP210 T00570027 $


Wind From 120°
Speed 06 kn.

 
 
jpsmedia worldairports.se 2019   terms of use